sensor_id;sensor_type;location;lat;lon;timestamp;P1;durP1;ratioP1;P2;durP2;ratioP2
1991;SDS011;997;48.448;8.924;2023-03-14T04:03:24;2.97;;;1.00;;
1991;SDS011;997;48.448;8.924;2023-03-14T04:06:13;0.60;;;0.60;;
1991;SDS011;997;48.448;8.924;2023-03-14T04:08:39;1.30;;;0.87;;
1991;SDS011;997;48.448;8.924;2023-03-14T04:11:06;0.80;;;0.70;;
1991;SDS011;997;48.448;8.924;2023-03-14T04:13:32;0.90;;;0.70;;
1991;SDS011;997;48.448;8.924;2023-03-14T09:46:07;0.50;;;0.50;;
1991;SDS011;997;48.448;8.924;2023-03-14T09:48:36;1.80;;;0.80;;
1991;SDS011;997;48.448;8.924;2023-03-14T09:51:06;4.03;;;0.53;;
1991;SDS011;997;48.448;8.924;2023-03-14T09:53:48;2.13;;;0.80;;
1991;SDS011;997;48.448;8.924;2023-03-14T09:56:25;1.20;;;0.50;;
1991;SDS011;997;48.448;8.924;2023-03-14T09:58:56;1.70;;;0.90;;
1991;SDS011;997;48.448;8.924;2023-03-14T10:01:26;1.37;;;0.73;;
1991;SDS011;997;48.448;8.924;2023-03-14T10:03:54;1.57;;;0.80;;
1991;SDS011;997;48.448;8.924;2023-03-14T10:06:24;0.90;;;0.70;;
1991;SDS011;997;48.448;8.924;2023-03-14T10:08:52;1.00;;;0.90;;
1991;SDS011;997;48.448;8.924;2023-03-14T10:11:20;0.70;;;0.53;;
1991;SDS011;997;48.448;8.924;2023-03-14T10:16:43;0.53;;;0.50;;
1991;SDS011;997;48.448;8.924;2023-03-14T10:19:22;0.70;;;0.70;;
1991;SDS011;997;48.448;8.924;2023-03-14T10:21:52;0.73;;;0.73;;
1991;SDS011;997;48.448;8.924;2023-03-14T10:24:26;1.00;;;0.90;;
1991;SDS011;997;48.448;8.924;2023-03-14T10:26:55;0.63;;;0.60;;
1991;SDS011;997;48.448;8.924;2023-03-14T10:29:32;1.10;;;0.60;;
1991;SDS011;997;48.448;8.924;2023-03-14T10:32:00;0.80;;;0.70;;
1991;SDS011;997;48.448;8.924;2023-03-14T10:34:29;0.57;;;0.50;;
1991;SDS011;997;48.448;8.924;2023-03-14T10:37:21;0.70;;;0.70;;
1991;SDS011;997;48.448;8.924;2023-03-14T10:39:51;0.60;;;0.60;;
1991;SDS011;997;48.448;8.924;2023-03-14T10:42:26;0.83;;;0.60;;
1991;SDS011;997;48.448;8.924;2023-03-14T10:44:55;2.27;;;0.60;;
1991;SDS011;997;48.448;8.924;2023-03-14T10:47:24;1.10;;;0.80;;
1991;SDS011;997;48.448;8.924;2023-03-14T10:49:53;2.60;;;1.47;;
1991;SDS011;997;48.448;8.924;2023-03-14T10:54:59;0.70;;;0.50;;
1991;SDS011;997;48.448;8.924;2023-03-14T10:57:26;1.27;;;0.60;;
1991;SDS011;997;48.448;8.924;2023-03-14T10:59:53;0.67;;;0.50;;
1991;SDS011;997;48.448;8.924;2023-03-14T11:08:53;0.83;;;0.50;;
1991;SDS011;997;48.448;8.924;2023-03-14T11:13:57;0.70;;;0.60;;
1991;SDS011;997;48.448;8.924;2023-03-14T11:19:38;1.63;;;1.40;;
1991;SDS011;997;48.448;8.924;2023-03-14T11:22:20;1.57;;;1.43;;
1991;SDS011;997;48.448;8.924;2023-03-14T11:30:12;0.60;;;0.60;;
1991;SDS011;997;48.448;8.924;2023-03-14T11:32:55;0.63;;;0.63;;
1991;SDS011;997;48.448;8.924;2023-03-14T11:35:37;0.67;;;0.67;;
1991;SDS011;997;48.448;8.924;2023-03-14T11:40:46;0.80;;;0.60;;
1991;SDS011;997;48.448;8.924;2023-03-14T11:43:20;1.07;;;0.60;;
1991;SDS011;997;48.448;8.924;2023-03-14T11:45:52;1.07;;;0.50;;
1991;SDS011;997;48.448;8.924;2023-03-14T11:48:35;0.83;;;0.70;;
1991;SDS011;997;48.448;8.924;2023-03-14T11:51:05;0.50;;;0.50;;
1991;SDS011;997;48.448;8.924;2023-03-14T11:54:11;0.73;;;0.70;;
1991;SDS011;997;48.448;8.924;2023-03-14T11:56:48;0.80;;;0.70;;
1991;SDS011;997;48.448;8.924;2023-03-14T12:10:54;0.83;;;0.83;;
1991;SDS011;997;48.448;8.924;2023-03-14T12:13:29;2.37;;;1.80;;
1991;SDS011;997;48.448;8.924;2023-03-14T12:19:28;1.53;;;1.30;;
1991;SDS011;997;48.448;8.924;2023-03-14T12:24:33;3.03;;;0.80;;
1991;SDS011;997;48.448;8.924;2023-03-14T12:27:03;1.07;;;1.03;;
1991;SDS011;997;48.448;8.924;2023-03-14T12:29:32;0.90;;;0.73;;
1991;SDS011;997;48.448;8.924;2023-03-14T12:34:29;3.13;;;1.33;;
1991;SDS011;997;48.448;8.924;2023-03-14T12:39:53;1.50;;;1.10;;
1991;SDS011;997;48.448;8.924;2023-03-14T12:50:44;0.87;;;0.87;;
1991;SDS011;997;48.448;8.924;2023-03-14T12:56:26;1.10;;;1.00;;
1991;SDS011;997;48.448;8.924;2023-03-14T13:04:35;0.70;;;0.70;;
1991;SDS011;997;48.448;8.924;2023-03-14T13:07:11;1.10;;;1.00;;
1991;SDS011;997;48.448;8.924;2023-03-14T13:12:41;3.63;;;2.97;;
1991;SDS011;997;48.448;8.924;2023-03-14T13:20:42;1.00;;;1.00;;
1991;SDS011;997;48.448;8.924;2023-03-14T13:23:24;0.80;;;0.80;;
1991;SDS011;997;48.448;8.924;2023-03-14T13:25:52;1.10;;;1.00;;
1991;SDS011;997;48.448;8.924;2023-03-14T13:28:18;1.00;;;0.80;;
1991;SDS011;997;48.448;8.924;2023-03-14T13:30:45;1.00;;;1.00;;
1991;SDS011;997;48.448;8.924;2023-03-14T13:33:13;1.33;;;1.23;;
1991;SDS011;997;48.448;8.924;2023-03-14T13:38:20;2.73;;;2.50;;
1991;SDS011;997;48.448;8.924;2023-03-14T13:40:48;1.20;;;1.10;;
1991;SDS011;997;48.448;8.924;2023-03-14T13:43:27;1.10;;;1.07;;
1991;SDS011;997;48.448;8.924;2023-03-14T13:46:07;1.07;;;1.07;;
1991;SDS011;997;48.448;8.924;2023-03-14T13:48:43;1.13;;;0.93;;
1991;SDS011;997;48.448;8.924;2023-03-14T13:51:12;1.80;;;1.70;;
1991;SDS011;997;48.448;8.924;2023-03-14T13:53:46;1.43;;;1.33;;
1991;SDS011;997;48.448;8.924;2023-03-14T13:56:14;4.40;;;3.50;;
1991;SDS011;997;48.448;8.924;2023-03-14T13:58:41;1.93;;;1.70;;
1991;SDS011;997;48.448;8.924;2023-03-14T14:01:41;3.03;;;1.90;;
1991;SDS011;997;48.448;8.924;2023-03-14T14:04:05;1.53;;;1.37;;
1991;SDS011;997;48.448;8.924;2023-03-14T14:06:37;2.90;;;1.63;;
1991;SDS011;997;48.448;8.924;2023-03-14T14:09:12;3.13;;;2.33;;
1991;SDS011;997;48.448;8.924;2023-03-14T14:11:51;2.00;;;1.30;;
1991;SDS011;997;48.448;8.924;2023-03-14T14:16:59;1.63;;;1.37;;
1991;SDS011;997;48.448;8.924;2023-03-14T14:19:26;1.63;;;1.10;;
1991;SDS011;997;48.448;8.924;2023-03-14T14:21:55;1.27;;;1.13;;
1991;SDS011;997;48.448;8.924;2023-03-14T14:24:22;0.87;;;0.83;;
1991;SDS011;997;48.448;8.924;2023-03-14T14:26:53;1.10;;;1.00;;
1991;SDS011;997;48.448;8.924;2023-03-14T14:29:28;2.80;;;1.30;;
1991;SDS011;997;48.448;8.924;2023-03-14T14:37:21;3.07;;;1.67;;
1991;SDS011;997;48.448;8.924;2023-03-14T14:39:50;2.83;;;1.30;;
1991;SDS011;997;48.448;8.924;2023-03-14T14:42:19;3.57;;;1.30;;
1991;SDS011;997;48.448;8.924;2023-03-14T14:44:49;2.70;;;1.07;;
1991;SDS011;997;48.448;8.924;2023-03-14T14:47:17;3.63;;;3.30;;
1991;SDS011;997;48.448;8.924;2023-03-14T14:49:46;2.87;;;2.13;;
1991;SDS011;997;48.448;8.924;2023-03-14T14:54:47;2.20;;;1.20;;
1991;SDS011;997;48.448;8.924;2023-03-14T14:57:19;1.63;;;1.53;;
1991;SDS011;997;48.448;8.924;2023-03-14T14:59:48;2.10;;;1.90;;
1991;SDS011;997;48.448;8.924;2023-03-14T15:02:30;2.40;;;2.20;;
1991;SDS011;997;48.448;8.924;2023-03-14T15:05:05;2.77;;;2.57;;
1991;SDS011;997;48.448;8.924;2023-03-14T15:07:36;3.60;;;1.77;;
1991;SDS011;997;48.448;8.924;2023-03-14T15:10:02;4.60;;;4.20;;
1991;SDS011;997;48.448;8.924;2023-03-14T15:12:28;4.73;;;2.37;;
1991;SDS011;997;48.448;8.924;2023-03-14T15:14:53;2.40;;;1.20;;
1991;SDS011;997;48.448;8.924;2023-03-14T15:17:22;1.67;;;1.57;;
1991;SDS011;997;48.448;8.924;2023-03-14T15:19:49;2.83;;;2.20;;
1991;SDS011;997;48.448;8.924;2023-03-14T15:22:14;1.97;;;1.87;;
1991;SDS011;997;48.448;8.924;2023-03-14T16:52:42;3.87;;;2.13;;
1991;SDS011;997;48.448;8.924;2023-03-14T16:55:11;5.27;;;2.67;;
1991;SDS011;997;48.448;8.924;2023-03-14T16:57:37;3.53;;;3.23;;
1991;SDS011;997;48.448;8.924;2023-03-14T17:00:03;3.60;;;1.90;;
1991;SDS011;997;48.448;8.924;2023-03-14T17:02:29;4.50;;;2.50;;
1991;SDS011;997;48.448;8.924;2023-03-14T17:04:55;3.97;;;2.80;;
1991;SDS011;997;48.448;8.924;2023-03-14T17:07:20;3.67;;;2.70;;
1991;SDS011;997;48.448;8.924;2023-03-14T17:09:46;6.20;;;2.00;;
1991;SDS011;997;48.448;8.924;2023-03-14T17:12:12;3.43;;;2.37;;
1991;SDS011;997;48.448;8.924;2023-03-14T17:14:38;2.00;;;1.80;;
1991;SDS011;997;48.448;8.924;2023-03-14T17:17:03;3.67;;;2.77;;
1991;SDS011;997;48.448;8.924;2023-03-14T17:19:29;1.50;;;1.37;;
1991;SDS011;997;48.448;8.924;2023-03-14T17:21:57;4.00;;;2.20;;
1991;SDS011;997;48.448;8.924;2023-03-14T17:24:23;2.47;;;2.30;;
1991;SDS011;997;48.448;8.924;2023-03-14T17:26:49;3.03;;;2.30;;
1991;SDS011;997;48.448;8.924;2023-03-14T17:29:14;7.17;;;3.30;;
1991;SDS011;997;48.448;8.924;2023-03-14T17:31:40;2.57;;;1.90;;
1991;SDS011;997;48.448;8.924;2023-03-14T17:34:06;6.20;;;3.60;;
1991;SDS011;997;48.448;8.924;2023-03-14T17:36:32;4.17;;;3.60;;
1991;SDS011;997;48.448;8.924;2023-03-14T17:38:57;2.40;;;2.20;;
1991;SDS011;997;48.448;8.924;2023-03-14T17:41:23;2.30;;;2.10;;
1991;SDS011;997;48.448;8.924;2023-03-14T17:43:49;3.10;;;2.83;;
1991;SDS011;997;48.448;8.924;2023-03-14T17:46:15;2.60;;;1.97;;
1991;SDS011;997;48.448;8.924;2023-03-14T17:48:44;2.33;;;1.70;;
1991;SDS011;997;48.448;8.924;2023-03-14T17:51:12;2.07;;;1.97;;
1991;SDS011;997;48.448;8.924;2023-03-14T17:53:39;3.07;;;2.53;;
1991;SDS011;997;48.448;8.924;2023-03-14T17:56:05;2.60;;;2.40;;
1991;SDS011;997;48.448;8.924;2023-03-14T17:58:31;2.87;;;2.67;;
1991;SDS011;997;48.448;8.924;2023-03-14T18:01:07;2.97;;;2.77;;
1991;SDS011;997;48.448;8.924;2023-03-14T18:03:37;6.30;;;3.20;;
1991;SDS011;997;48.448;8.924;2023-03-14T18:06:04;3.90;;;3.10;;
1991;SDS011;997;48.448;8.924;2023-03-14T18:08:31;1.70;;;1.60;;
1991;SDS011;997;48.448;8.924;2023-03-14T18:10:57;3.40;;;2.80;;
1991;SDS011;997;48.448;8.924;2023-03-14T18:13:22;2.07;;;1.87;;
1991;SDS011;997;48.448;8.924;2023-03-14T18:15:48;6.60;;;4.00;;
1991;SDS011;997;48.448;8.924;2023-03-14T18:18:14;2.20;;;2.00;;
1991;SDS011;997;48.448;8.924;2023-03-14T18:20:39;4.17;;;2.70;;
1991;SDS011;997;48.448;8.924;2023-03-14T18:23:05;2.53;;;2.07;;
1991;SDS011;997;48.448;8.924;2023-03-14T18:25:31;1.87;;;1.73;;
1991;SDS011;997;48.448;8.924;2023-03-14T18:27:57;1.70;;;1.20;;
1991;SDS011;997;48.448;8.924;2023-03-14T18:30:23;1.40;;;1.30;;
1991;SDS011;997;48.448;8.924;2023-03-14T18:32:48;4.63;;;2.43;;
1991;SDS011;997;48.448;8.924;2023-03-14T18:35:15;3.50;;;3.20;;
1991;SDS011;997;48.448;8.924;2023-03-14T18:37:40;5.50;;;1.93;;
1991;SDS011;997;48.448;8.924;2023-03-14T18:40:06;1.70;;;1.60;;
1991;SDS011;997;48.448;8.924;2023-03-14T18:42:34;1.53;;;1.40;;
1991;SDS011;997;48.448;8.924;2023-03-14T18:45:00;2.67;;;1.50;;
1991;SDS011;997;48.448;8.924;2023-03-14T18:47:25;2.10;;;1.47;;
1991;SDS011;997;48.448;8.924;2023-03-14T18:49:51;3.03;;;1.60;;
1991;SDS011;997;48.448;8.924;2023-03-14T18:52:17;2.90;;;1.73;;
1991;SDS011;997;48.448;8.924;2023-03-14T18:54:42;3.50;;;1.93;;
1991;SDS011;997;48.448;8.924;2023-03-14T18:57:08;3.43;;;2.77;;
1991;SDS011;997;48.448;8.924;2023-03-14T18:59:34;1.80;;;1.70;;
1991;SDS011;997;48.448;8.924;2023-03-14T19:01:59;2.60;;;2.13;;
1991;SDS011;997;48.448;8.924;2023-03-14T19:04:25;2.90;;;1.90;;
1991;SDS011;997;48.448;8.924;2023-03-14T19:06:50;2.30;;;2.10;;
1991;SDS011;997;48.448;8.924;2023-03-14T19:09:18;2.97;;;2.30;;
1991;SDS011;997;48.448;8.924;2023-03-14T19:11:43;7.00;;;4.17;;
1991;SDS011;997;48.448;8.924;2023-03-14T19:14:09;3.30;;;2.30;;
1991;SDS011;997;48.448;8.924;2023-03-14T19:16:36;2.40;;;2.10;;
1991;SDS011;997;48.448;8.924;2023-03-14T19:19:02;2.70;;;2.30;;
1991;SDS011;997;48.448;8.924;2023-03-14T19:21:31;4.00;;;2.50;;
1991;SDS011;997;48.448;8.924;2023-03-14T19:23:59;2.47;;;2.27;;
1991;SDS011;997;48.448;8.924;2023-03-14T19:26:26;3.67;;;3.37;;
1991;SDS011;997;48.448;8.924;2023-03-14T19:28:54;2.30;;;2.10;;
1991;SDS011;997;48.448;8.924;2023-03-14T19:31:19;3.47;;;2.77;;
1991;SDS011;997;48.448;8.924;2023-03-14T19:33:45;2.80;;;2.00;;
1991;SDS011;997;48.448;8.924;2023-03-14T19:36:33;3.27;;;2.97;;
1991;SDS011;997;48.448;8.924;2023-03-14T19:38:59;6.40;;;2.90;;
1991;SDS011;997;48.448;8.924;2023-03-14T19:41:26;2.60;;;2.23;;
1991;SDS011;997;48.448;8.924;2023-03-14T19:43:52;2.40;;;2.20;;
1991;SDS011;997;48.448;8.924;2023-03-14T19:46:18;3.47;;;3.17;;
1991;SDS011;997;48.448;8.924;2023-03-14T19:48:45;4.80;;;3.10;;
1991;SDS011;997;48.448;8.924;2023-03-14T19:51:13;3.40;;;3.10;;
1991;SDS011;997;48.448;8.924;2023-03-14T19:53:40;4.33;;;3.00;;
1991;SDS011;997;48.448;8.924;2023-03-14T19:56:06;2.00;;;1.90;;
1991;SDS011;997;48.448;8.924;2023-03-14T19:58:32;2.97;;;2.70;;
1991;SDS011;997;48.448;8.924;2023-03-14T20:00:58;2.93;;;2.73;;
1991;SDS011;997;48.448;8.924;2023-03-14T20:03:24;4.60;;;2.60;;
1991;SDS011;997;48.448;8.924;2023-03-14T20:05:51;3.93;;;3.20;;
1991;SDS011;997;48.448;8.924;2023-03-14T20:08:18;8.93;;;3.77;;
1991;SDS011;997;48.448;8.924;2023-03-14T20:10:45;2.30;;;2.10;;
1991;SDS011;997;48.448;8.924;2023-03-14T20:13:11;3.00;;;2.17;;
1991;SDS011;997;48.448;8.924;2023-03-14T20:15:37;2.67;;;2.47;;
1991;SDS011;997;48.448;8.924;2023-03-14T20:18:04;3.27;;;2.43;;
1991;SDS011;997;48.448;8.924;2023-03-14T20:20:30;5.03;;;2.53;;
1991;SDS011;997;48.448;8.924;2023-03-14T20:22:56;3.07;;;1.97;;
1991;SDS011;997;48.448;8.924;2023-03-14T20:25:21;3.83;;;2.07;;
1991;SDS011;997;48.448;8.924;2023-03-14T20:27:48;1.97;;;1.87;;
1991;SDS011;997;48.448;8.924;2023-03-14T20:30:16;3.90;;;1.87;;
1991;SDS011;997;48.448;8.924;2023-03-14T20:32:45;2.33;;;1.60;;
1991;SDS011;997;48.448;8.924;2023-03-14T20:35:13;2.00;;;1.53;;
1991;SDS011;997;48.448;8.924;2023-03-14T20:37:47;3.23;;;1.60;;
1991;SDS011;997;48.448;8.924;2023-03-14T20:40:23;2.53;;;1.87;;
1991;SDS011;997;48.448;8.924;2023-03-14T20:42:52;2.90;;;1.97;;
1991;SDS011;997;48.448;8.924;2023-03-14T20:45:18;2.40;;;2.20;;
1991;SDS011;997;48.448;8.924;2023-03-14T20:47:44;3.27;;;2.10;;
1991;SDS011;997;48.448;8.924;2023-03-14T20:50:10;2.93;;;2.00;;
1991;SDS011;997;48.448;8.924;2023-03-14T20:52:36;2.10;;;1.57;;
1991;SDS011;997;48.448;8.924;2023-03-14T20:55:02;2.20;;;2.00;;
1991;SDS011;997;48.448;8.924;2023-03-14T20:57:28;3.23;;;2.17;;
1991;SDS011;997;48.448;8.924;2023-03-14T20:59:54;2.30;;;1.90;;
1991;SDS011;997;48.448;8.924;2023-03-14T21:02:20;2.60;;;2.10;;
1991;SDS011;997;48.448;8.924;2023-03-14T21:04:45;2.63;;;2.17;;
1991;SDS011;997;48.448;8.924;2023-03-14T21:07:11;2.47;;;2.27;;
1991;SDS011;997;48.448;8.924;2023-03-14T21:09:37;3.30;;;2.50;;
1991;SDS011;997;48.448;8.924;2023-03-14T21:12:03;2.30;;;2.10;;
1991;SDS011;997;48.448;8.924;2023-03-14T21:14:29;6.00;;;3.13;;
1991;SDS011;997;48.448;8.924;2023-03-14T21:16:55;2.03;;;1.47;;
1991;SDS011;997;48.448;8.924;2023-03-14T21:19:21;3.17;;;1.73;;
1991;SDS011;997;48.448;8.924;2023-03-14T21:21:54;1.70;;;1.60;;
1991;SDS011;997;48.448;8.924;2023-03-14T21:24:23;1.53;;;1.40;;
1991;SDS011;997;48.448;8.924;2023-03-14T21:26:50;4.53;;;3.20;;
1991;SDS011;997;48.448;8.924;2023-03-14T21:29:17;2.70;;;2.50;;
1991;SDS011;997;48.448;8.924;2023-03-14T21:31:42;2.07;;;1.97;;
1991;SDS011;997;48.448;8.924;2023-03-14T21:34:08;1.97;;;1.87;;
1991;SDS011;997;48.448;8.924;2023-03-14T21:36:34;2.50;;;2.30;;
1991;SDS011;997;48.448;8.924;2023-03-14T21:38:59;2.87;;;2.67;;
1991;SDS011;997;48.448;8.924;2023-03-14T21:41:25;2.13;;;1.47;;
1991;SDS011;997;48.448;8.924;2023-03-14T21:43:51;1.80;;;1.70;;
1991;SDS011;997;48.448;8.924;2023-03-14T21:46:17;2.03;;;1.90;;
1991;SDS011;997;48.448;8.924;2023-03-14T21:48:43;1.63;;;1.53;;
1991;SDS011;997;48.448;8.924;2023-03-14T21:51:09;1.90;;;1.80;;
1991;SDS011;997;48.448;8.924;2023-03-14T21:53:34;1.53;;;1.47;;
1991;SDS011;997;48.448;8.924;2023-03-14T21:56:00;2.80;;;2.07;;
1991;SDS011;997;48.448;8.924;2023-03-14T21:58:26;2.07;;;1.90;;
1991;SDS011;997;48.448;8.924;2023-03-14T22:00:52;3.10;;;2.90;;
1991;SDS011;997;48.448;8.924;2023-03-14T22:03:20;6.47;;;4.07;;
1991;SDS011;997;48.448;8.924;2023-03-14T22:05:47;7.37;;;5.73;;
1991;SDS011;997;48.448;8.924;2023-03-14T22:08:13;5.57;;;5.07;;
1991;SDS011;997;48.448;8.924;2023-03-14T22:10:47;2.47;;;2.27;;
1991;SDS011;997;48.448;8.924;2023-03-14T22:13:14;6.10;;;2.70;;
1991;SDS011;997;48.448;8.924;2023-03-14T22:15:41;3.80;;;3.50;;
1991;SDS011;997;48.448;8.924;2023-03-14T22:18:07;4.80;;;3.30;;
1991;SDS011;997;48.448;8.924;2023-03-14T22:20:33;2.30;;;2.20;;
1991;SDS011;997;48.448;8.924;2023-03-14T22:22:59;2.67;;;2.47;;
1991;SDS011;997;48.448;8.924;2023-03-14T22:25:25;2.87;;;2.50;;
1991;SDS011;997;48.448;8.924;2023-03-14T22:27:51;6.83;;;2.63;;
